עמוד ראשי
METAR-TAF:

METAR-TAF

שדות תעופה :

סמנה, הרפובליקה הדומיניקאנית

קו רוחב: 19-11-55N, קו אורך: 69-25-47W, גובה: 18מטר

תצפית מזג אוויר נוכחית

הדו"ח נערך לפני 4 שעות ו 27דקות, בשעה 21:00 UTC
רוח 6קשר מכיוון מזרח
טמפרטורת 30 צלסיוס
לחות 75%
לחץ 1015 hPa
ראות 10 קילומטר או יותר
מעט עננים בגובה 2000רגל

METAR: MDAB 122100Z 09006KT 9999 FEW020 30/25 Q1015

זמן: 21:27 (01:27 UTC)


TAF: חסר

תצפיות ותחזיות מזג אוויר לגבי יותר מ- 4,000 שדות תעופה ברחבי העולם. דוחות METAR ו- TAF.

התחנות הזמינות מסומנות בנקודות צהובות ואדומות על גבי המפה.

העבר את העכבר לנקודה הצבעונית על מנת לראות את שם התחנה.

לאחר מכן, לחץ כדי לראות את תוכן ואת תחזיות מזג האוויר.

כדי לשנות את המפה: לחץ על הכפתורים הירוקים עם הפלוס השחור כדי להתקרב; על הכפתור הירוק עם המקף כדי להתרחק; או בחיצים הירוקים למפות סמוכות.


METAR-TAF: